sensor_id;sensor_type;location;lat;lon;timestamp;P1;durP1;ratioP1;P2;durP2;ratioP2
56511;SDS011;42408;53.238;5.686;2023-02-28T00:03:52;7.70;;;3.40;;
56511;SDS011;42408;53.238;5.686;2023-02-28T00:06:17;5.40;;;3.20;;
56511;SDS011;42408;53.238;5.686;2023-02-28T00:08:43;11.63;;;3.30;;
56511;SDS011;42408;53.238;5.686;2023-02-28T00:11:10;6.90;;;3.10;;
56511;SDS011;42408;53.238;5.686;2023-02-28T00:13:38;7.90;;;3.35;;
56511;SDS011;42408;53.238;5.686;2023-02-28T00:16:10;7.85;;;3.30;;
56511;SDS011;42408;53.238;5.686;2023-02-28T00:18:38;6.60;;;3.03;;
56511;SDS011;42408;53.238;5.686;2023-02-28T00:21:04;6.03;;;3.20;;
56511;SDS011;42408;53.238;5.686;2023-02-28T00:23:31;6.03;;;2.58;;
56511;SDS011;42408;53.238;5.686;2023-02-28T00:25:57;5.73;;;2.90;;
56511;SDS011;42408;53.238;5.686;2023-02-28T00:28:23;6.90;;;3.67;;
56511;SDS011;42408;53.238;5.686;2023-02-28T00:30:49;8.00;;;3.03;;
56511;SDS011;42408;53.238;5.686;2023-02-28T00:33:15;7.90;;;2.80;;
56511;SDS011;42408;53.238;5.686;2023-02-28T00:35:41;8.32;;;3.17;;
56511;SDS011;42408;53.238;5.686;2023-02-28T00:38:07;8.00;;;3.43;;
56511;SDS011;42408;53.238;5.686;2023-02-28T00:40:33;9.00;;;3.63;;
56511;SDS011;42408;53.238;5.686;2023-02-28T00:42:58;14.53;;;4.47;;
56511;SDS011;42408;53.238;5.686;2023-02-28T00:45:24;7.17;;;3.57;;
56511;SDS011;42408;53.238;5.686;2023-02-28T00:47:50;9.85;;;3.85;;
56511;SDS011;42408;53.238;5.686;2023-02-28T00:50:17;8.73;;;3.70;;
56511;SDS011;42408;53.238;5.686;2023-02-28T00:52:44;7.07;;;3.50;;
56511;SDS011;42408;53.238;5.686;2023-02-28T00:55:10;9.30;;;3.50;;
56511;SDS011;42408;53.238;5.686;2023-02-28T00:57:35;8.67;;;3.40;;
56511;SDS011;42408;53.238;5.686;2023-02-28T01:00:02;12.80;;;3.73;;
56511;SDS011;42408;53.238;5.686;2023-02-28T01:02:29;7.97;;;3.45;;
56511;SDS011;42408;53.238;5.686;2023-02-28T01:04:55;7.57;;;3.53;;
56511;SDS011;42408;53.238;5.686;2023-02-28T01:07:22;8.38;;;3.15;;
56511;SDS011;42408;53.238;5.686;2023-02-28T01:09:48;6.63;;;3.05;;
56511;SDS011;42408;53.238;5.686;2023-02-28T01:12:13;10.20;;;3.40;;
56511;SDS011;42408;53.238;5.686;2023-02-28T01:14:39;8.37;;;3.53;;
56511;SDS011;42408;53.238;5.686;2023-02-28T01:17:05;6.70;;;3.13;;
56511;SDS011;42408;53.238;5.686;2023-02-28T01:19:31;9.33;;;3.63;;
56511;SDS011;42408;53.238;5.686;2023-02-28T01:21:57;7.03;;;3.40;;
56511;SDS011;42408;53.238;5.686;2023-02-28T01:24:26;10.77;;;3.30;;
56511;SDS011;42408;53.238;5.686;2023-02-28T01:26:52;7.30;;;3.10;;
56511;SDS011;42408;53.238;5.686;2023-02-28T01:29:17;10.57;;;3.57;;
56511;SDS011;42408;53.238;5.686;2023-02-28T01:31:43;6.43;;;3.30;;
56511;SDS011;42408;53.238;5.686;2023-02-28T01:34:08;7.50;;;2.97;;
56511;SDS011;42408;53.238;5.686;2023-02-28T01:36:34;6.20;;;2.83;;
56511;SDS011;42408;53.238;5.686;2023-02-28T01:39:01;10.45;;;3.08;;
56511;SDS011;42408;53.238;5.686;2023-02-28T01:41:28;7.80;;;3.00;;
56511;SDS011;42408;53.238;5.686;2023-02-28T01:44:00;6.45;;;2.85;;
56511;SDS011;42408;53.238;5.686;2023-02-28T01:46:52;8.07;;;3.75;;
56511;SDS011;42408;53.238;5.686;2023-02-28T01:49:17;10.80;;;3.07;;
56511;SDS011;42408;53.238;5.686;2023-02-28T01:51:54;7.15;;;2.63;;
56511;SDS011;42408;53.238;5.686;2023-02-28T01:54:22;6.30;;;2.40;;
56511;SDS011;42408;53.238;5.686;2023-02-28T01:56:55;8.68;;;2.67;;
56511;SDS011;42408;53.238;5.686;2023-02-28T01:59:53;8.27;;;2.78;;
56511;SDS011;42408;53.238;5.686;2023-02-28T02:02:23;5.88;;;2.47;;
56511;SDS011;42408;53.238;5.686;2023-02-28T02:04:51;8.70;;;2.70;;
56511;SDS011;42408;53.238;5.686;2023-02-28T02:07:26;8.48;;;2.63;;
56511;SDS011;42408;53.238;5.686;2023-02-28T02:09:59;7.25;;;3.25;;
56511;SDS011;42408;53.238;5.686;2023-02-28T02:21:40;10.70;;;3.40;;
56511;SDS011;42408;53.238;5.686;2023-02-28T02:27:33;10.60;;;3.60;;
56511;SDS011;42408;53.238;5.686;2023-02-28T02:35:30;11.60;;;3.70;;
56511;SDS011;42408;53.238;5.686;2023-02-28T02:38:25;7.03;;;3.03;;
56511;SDS011;42408;53.238;5.686;2023-02-28T02:41:08;10.95;;;4.47;;
56511;SDS011;42408;53.238;5.686;2023-02-28T02:46:33;5.50;;;3.00;;
56511;SDS011;42408;53.238;5.686;2023-02-28T02:49:03;8.00;;;3.15;;
56511;SDS011;42408;53.238;5.686;2023-02-28T02:51:33;7.43;;;2.88;;
56511;SDS011;42408;53.238;5.686;2023-02-28T02:54:05;6.20;;;2.42;;
56511;SDS011;42408;53.238;5.686;2023-02-28T02:56:36;7.72;;;3.30;;
56511;SDS011;42408;53.238;5.686;2023-02-28T02:59:07;6.43;;;3.13;;
56511;SDS011;42408;53.238;5.686;2023-02-28T03:01:36;7.78;;;3.55;;
56511;SDS011;42408;53.238;5.686;2023-02-28T03:04:06;6.68;;;4.03;;
56511;SDS011;42408;53.238;5.686;2023-02-28T03:06:34;7.95;;;3.05;;
56511;SDS011;42408;53.238;5.686;2023-02-28T03:09:00;8.57;;;4.47;;
56511;SDS011;42408;53.238;5.686;2023-02-28T03:11:26;13.40;;;3.65;;
56511;SDS011;42408;53.238;5.686;2023-02-28T03:19:22;5.68;;;3.08;;
56511;SDS011;42408;53.238;5.686;2023-02-28T03:30:29;7.25;;;3.78;;
56511;SDS011;42408;53.238;5.686;2023-02-28T03:33:05;7.95;;;3.47;;
56511;SDS011;42408;53.238;5.686;2023-02-28T03:35:49;9.85;;;3.40;;
56511;SDS011;42408;53.238;5.686;2023-02-28T03:38:31;8.25;;;3.58;;
56511;SDS011;42408;53.238;5.686;2023-02-28T03:41:15;6.50;;;3.28;;
56511;SDS011;42408;53.238;5.686;2023-02-28T03:43:56;8.32;;;3.10;;
56511;SDS011;42408;53.238;5.686;2023-02-28T03:46:28;7.30;;;3.40;;
56511;SDS011;42408;53.238;5.686;2023-02-28T03:48:57;8.38;;;3.30;;
56511;SDS011;42408;53.238;5.686;2023-02-28T03:51:30;8.32;;;2.63;;
56511;SDS011;42408;53.238;5.686;2023-02-28T03:53:58;8.52;;;3.03;;
56511;SDS011;42408;53.238;5.686;2023-02-28T03:59:12;6.97;;;2.63;;
56511;SDS011;42408;53.238;5.686;2023-02-28T04:01:51;5.47;;;2.67;;
56511;SDS011;42408;53.238;5.686;2023-02-28T04:04:17;4.77;;;2.57;;
56511;SDS011;42408;53.238;5.686;2023-02-28T04:06:43;8.05;;;2.53;;
56511;SDS011;42408;53.238;5.686;2023-02-28T04:09:11;8.25;;;3.03;;
56511;SDS011;42408;53.238;5.686;2023-02-28T04:11:42;4.65;;;2.70;;
56511;SDS011;42408;53.238;5.686;2023-02-28T04:14:11;7.05;;;2.70;;
56511;SDS011;42408;53.238;5.686;2023-02-28T04:16:38;5.70;;;2.80;;
56511;SDS011;42408;53.238;5.686;2023-02-28T04:19:06;8.82;;;2.63;;
56511;SDS011;42408;53.238;5.686;2023-02-28T04:21:35;7.90;;;2.30;;
56511;SDS011;42408;53.238;5.686;2023-02-28T04:24:07;5.32;;;2.55;;
56511;SDS011;42408;53.238;5.686;2023-02-28T04:26:39;8.70;;;2.50;;
56511;SDS011;42408;53.238;5.686;2023-02-28T04:29:06;9.57;;;2.78;;
56511;SDS011;42408;53.238;5.686;2023-02-28T04:31:32;7.13;;;2.65;;
56511;SDS011;42408;53.238;5.686;2023-02-28T04:33:59;7.88;;;2.88;;
56511;SDS011;42408;53.238;5.686;2023-02-28T04:36:25;8.77;;;2.92;;
56511;SDS011;42408;53.238;5.686;2023-02-28T04:38:51;9.53;;;2.77;;
56511;SDS011;42408;53.238;5.686;2023-02-28T04:41:17;7.33;;;3.53;;
56511;SDS011;42408;53.238;5.686;2023-02-28T04:43:43;10.55;;;3.20;;
56511;SDS011;42408;53.238;5.686;2023-02-28T04:46:09;8.13;;;3.07;;
56511;SDS011;42408;53.238;5.686;2023-02-28T04:48:36;7.95;;;3.20;;
56511;SDS011;42408;53.238;5.686;2023-02-28T04:51:03;12.15;;;2.97;;
56511;SDS011;42408;53.238;5.686;2023-02-28T04:53:30;11.88;;;2.78;;
56511;SDS011;42408;53.238;5.686;2023-02-28T04:55:56;7.82;;;2.35;;
56511;SDS011;42408;53.238;5.686;2023-02-28T04:58:22;8.65;;;2.30;;
56511;SDS011;42408;53.238;5.686;2023-02-28T05:00:49;8.73;;;2.70;;
56511;SDS011;42408;53.238;5.686;2023-02-28T05:03:15;8.38;;;2.15;;
56511;SDS011;42408;53.238;5.686;2023-02-28T05:05:41;7.60;;;2.67;;
56511;SDS011;42408;53.238;5.686;2023-02-28T05:08:06;6.93;;;2.13;;
56511;SDS011;42408;53.238;5.686;2023-02-28T05:10:32;8.40;;;2.10;;
56511;SDS011;42408;53.238;5.686;2023-02-28T05:12:58;7.43;;;2.20;;
56511;SDS011;42408;53.238;5.686;2023-02-28T05:15:24;11.23;;;2.60;;
56511;SDS011;42408;53.238;5.686;2023-02-28T05:17:49;10.03;;;3.00;;
56511;SDS011;42408;53.238;5.686;2023-02-28T05:20:15;6.13;;;2.30;;
56511;SDS011;42408;53.238;5.686;2023-02-28T05:22:42;5.60;;;2.20;;
56511;SDS011;42408;53.238;5.686;2023-02-28T05:25:10;8.00;;;2.45;;
56511;SDS011;42408;53.238;5.686;2023-02-28T05:27:45;8.52;;;2.33;;
56511;SDS011;42408;53.238;5.686;2023-02-28T05:30:11;5.83;;;2.30;;
56511;SDS011;42408;53.238;5.686;2023-02-28T05:32:37;6.57;;;2.20;;
56511;SDS011;42408;53.238;5.686;2023-02-28T05:35:03;5.85;;;2.15;;
56511;SDS011;42408;53.238;5.686;2023-02-28T05:37:30;8.25;;;2.60;;
56511;SDS011;42408;53.238;5.686;2023-02-28T05:39:55;5.23;;;2.40;;
56511;SDS011;42408;53.238;5.686;2023-02-28T05:42:21;5.63;;;2.50;;
56511;SDS011;42408;53.238;5.686;2023-02-28T05:44:47;5.70;;;2.40;;
56511;SDS011;42408;53.238;5.686;2023-02-28T05:47:13;5.20;;;2.33;;
56511;SDS011;42408;53.238;5.686;2023-02-28T05:49:40;6.43;;;2.60;;
56511;SDS011;42408;53.238;5.686;2023-02-28T05:52:06;7.28;;;3.08;;
56511;SDS011;42408;53.238;5.686;2023-02-28T05:54:32;8.47;;;2.60;;
56511;SDS011;42408;53.238;5.686;2023-02-28T05:56:58;6.33;;;2.87;;
56511;SDS011;42408;53.238;5.686;2023-02-28T05:59:23;9.83;;;3.00;;
56511;SDS011;42408;53.238;5.686;2023-02-28T06:01:49;9.93;;;2.93;;
56511;SDS011;42408;53.238;5.686;2023-02-28T06:04:16;6.80;;;2.50;;
56511;SDS011;42408;53.238;5.686;2023-02-28T06:06:46;11.45;;;2.70;;
56511;SDS011;42408;53.238;5.686;2023-02-28T06:09:13;13.13;;;3.10;;
56511;SDS011;42408;53.238;5.686;2023-02-28T06:11:39;7.97;;;2.63;;
56511;SDS011;42408;53.238;5.686;2023-02-28T06:14:05;8.48;;;3.20;;
56511;SDS011;42408;53.238;5.686;2023-02-28T06:16:32;10.15;;;2.60;;
56511;SDS011;42408;53.238;5.686;2023-02-28T06:19:00;13.02;;;3.20;;
56511;SDS011;42408;53.238;5.686;2023-02-28T06:21:27;12.02;;;3.10;;
56511;SDS011;42408;53.238;5.686;2023-02-28T06:23:54;9.18;;;2.65;;
56511;SDS011;42408;53.238;5.686;2023-02-28T06:26:21;7.38;;;2.30;;
56511;SDS011;42408;53.238;5.686;2023-02-28T06:28:47;8.60;;;2.77;;
56511;SDS011;42408;53.238;5.686;2023-02-28T06:31:15;7.78;;;3.15;;
56511;SDS011;42408;53.238;5.686;2023-02-28T06:33:41;8.13;;;3.03;;
56511;SDS011;42408;53.238;5.686;2023-02-28T06:36:08;9.27;;;3.47;;
56511;SDS011;42408;53.238;5.686;2023-02-28T06:38:36;10.55;;;3.22;;
56511;SDS011;42408;53.238;5.686;2023-02-28T06:41:02;10.52;;;3.05;;
56511;SDS011;42408;53.238;5.686;2023-02-28T06:43:29;9.73;;;2.47;;
56511;SDS011;42408;53.238;5.686;2023-02-28T06:45:57;8.38;;;2.50;;
56511;SDS011;42408;53.238;5.686;2023-02-28T06:48:25;8.05;;;2.72;;
56511;SDS011;42408;53.238;5.686;2023-02-28T06:50:51;6.63;;;2.75;;
56511;SDS011;42408;53.238;5.686;2023-02-28T06:53:17;10.63;;;3.20;;
56511;SDS011;42408;53.238;5.686;2023-02-28T06:55:43;10.50;;;2.77;;
56511;SDS011;42408;53.238;5.686;2023-02-28T06:58:09;12.13;;;8.20;;
56511;SDS011;42408;53.238;5.686;2023-02-28T07:00:43;11.23;;;7.18;;
56511;SDS011;42408;53.238;5.686;2023-02-28T07:03:10;9.70;;;7.05;;
56511;SDS011;42408;53.238;5.686;2023-02-28T07:05:38;11.25;;;7.32;;
56511;SDS011;42408;53.238;5.686;2023-02-28T07:08:05;10.13;;;7.85;;
56511;SDS011;42408;53.238;5.686;2023-02-28T07:10:32;9.05;;;6.72;;
56511;SDS011;42408;53.238;5.686;2023-02-28T07:15:24;9.60;;;6.38;;
56511;SDS011;42408;53.238;5.686;2023-02-28T07:17:49;9.70;;;5.97;;
56511;SDS011;42408;53.238;5.686;2023-02-28T07:20:15;12.60;;;8.13;;
56511;SDS011;42408;53.238;5.686;2023-02-28T07:22:41;12.73;;;9.10;;
56511;SDS011;42408;53.238;5.686;2023-02-28T07:25:07;10.83;;;7.70;;
56511;SDS011;42408;53.238;5.686;2023-02-28T07:27:33;12.95;;;8.82;;
56511;SDS011;42408;53.238;5.686;2023-02-28T07:29:59;11.37;;;8.47;;
56511;SDS011;42408;53.238;5.686;2023-02-28T07:32:27;10.88;;;9.00;;
56511;SDS011;42408;53.238;5.686;2023-02-28T07:34:53;12.55;;;8.73;;
56511;SDS011;42408;53.238;5.686;2023-02-28T07:37:19;12.80;;;9.43;;
56511;SDS011;42408;53.238;5.686;2023-02-28T07:39:44;12.60;;;9.47;;
56511;SDS011;42408;53.238;5.686;2023-02-28T07:42:10;15.57;;;11.07;;
56511;SDS011;42408;53.238;5.686;2023-02-28T07:44:37;15.43;;;11.10;;
56511;SDS011;42408;53.238;5.686;2023-02-28T07:47:08;15.25;;;10.88;;
56511;SDS011;42408;53.238;5.686;2023-02-28T07:49:37;14.82;;;11.18;;
56511;SDS011;42408;53.238;5.686;2023-02-28T07:52:07;14.43;;;10.40;;
56511;SDS011;42408;53.238;5.686;2023-02-28T07:54:33;16.52;;;11.50;;
56511;SDS011;42408;53.238;5.686;2023-02-28T07:56:59;13.95;;;10.07;;
56511;SDS011;42408;53.238;5.686;2023-02-28T07:59:24;13.63;;;10.93;;
56511;SDS011;42408;53.238;5.686;2023-02-28T08:01:50;12.63;;;9.20;;
56511;SDS011;42408;53.238;5.686;2023-02-28T08:04:17;13.83;;;10.07;;
56511;SDS011;42408;53.238;5.686;2023-02-28T08:06:43;13.75;;;10.60;;
56511;SDS011;42408;53.238;5.686;2023-02-28T08:09:08;13.87;;;10.13;;
56511;SDS011;42408;53.238;5.686;2023-02-28T08:11:34;13.43;;;8.97;;
56511;SDS011;42408;53.238;5.686;2023-02-28T08:14:01;12.93;;;9.73;;
56511;SDS011;42408;53.238;5.686;2023-02-28T08:16:27;14.40;;;10.83;;
56511;SDS011;42408;53.238;5.686;2023-02-28T08:18:52;15.97;;;11.00;;
56511;SDS011;42408;53.238;5.686;2023-02-28T08:21:19;15.13;;;10.13;;
56511;SDS011;42408;53.238;5.686;2023-02-28T08:23:48;14.10;;;10.13;;
56511;SDS011;42408;53.238;5.686;2023-02-28T08:26:15;14.35;;;10.07;;
56511;SDS011;42408;53.238;5.686;2023-02-28T08:28:42;16.70;;;10.48;;
56511;SDS011;42408;53.238;5.686;2023-02-28T08:31:08;14.70;;;11.07;;
56511;SDS011;42408;53.238;5.686;2023-02-28T08:33:35;13.52;;;10.00;;
56511;SDS011;42408;53.238;5.686;2023-02-28T08:36:01;14.10;;;10.80;;
56511;SDS011;42408;53.238;5.686;2023-02-28T08:38:27;13.40;;;10.60;;
56511;SDS011;42408;53.238;5.686;2023-02-28T08:40:59;13.50;;;10.57;;
56511;SDS011;42408;53.238;5.686;2023-02-28T08:43:27;14.23;;;10.75;;
56511;SDS011;42408;53.238;5.686;2023-02-28T08:45:53;15.77;;;11.80;;
56511;SDS011;42408;53.238;5.686;2023-02-28T08:48:23;14.75;;;11.65;;
56511;SDS011;42408;53.238;5.686;2023-02-28T08:53:21;17.25;;;11.65;;
56511;SDS011;42408;53.238;5.686;2023-02-28T08:55:54;15.27;;;11.27;;
56511;SDS011;42408;53.238;5.686;2023-02-28T08:58:21;16.63;;;11.80;;
56511;SDS011;42408;53.238;5.686;2023-02-28T09:00:47;17.33;;;12.73;;
56511;SDS011;42408;53.238;5.686;2023-02-28T09:03:12;17.27;;;12.03;;
56511;SDS011;42408;53.238;5.686;2023-02-28T09:05:38;17.60;;;11.83;;
56511;SDS011;42408;53.238;5.686;2023-02-28T09:08:03;17.67;;;12.50;;
56511;SDS011;42408;53.238;5.686;2023-02-28T09:10:29;18.47;;;12.37;;
56511;SDS011;42408;53.238;5.686;2023-02-28T09:12:55;20.93;;;13.40;;
56511;SDS011;42408;53.238;5.686;2023-02-28T09:15:20;16.40;;;12.13;;
56511;SDS011;42408;53.238;5.686;2023-02-28T09:17:46;19.10;;;13.67;;
56511;SDS011;42408;53.238;5.686;2023-02-28T09:20:12;16.93;;;12.80;;
56511;SDS011;42408;53.238;5.686;2023-02-28T09:22:37;20.57;;;13.23;;
56511;SDS011;42408;53.238;5.686;2023-02-28T09:25:03;20.30;;;12.63;;
56511;SDS011;42408;53.238;5.686;2023-02-28T09:27:29;19.20;;;12.57;;
56511;SDS011;42408;53.238;5.686;2023-02-28T09:29:55;19.93;;;13.77;;
56511;SDS011;42408;53.238;5.686;2023-02-28T09:32:21;20.80;;;13.80;;
56511;SDS011;42408;53.238;5.686;2023-02-28T09:34:46;19.73;;;13.73;;
56511;SDS011;42408;53.238;5.686;2023-02-28T09:37:12;18.50;;;12.33;;
56511;SDS011;42408;53.238;5.686;2023-02-28T09:39:37;15.83;;;12.20;;
56511;SDS011;42408;53.238;5.686;2023-02-28T09:42:03;19.30;;;12.13;;
56511;SDS011;42408;53.238;5.686;2023-02-28T09:44:35;16.58;;;11.05;;
56511;SDS011;42408;53.238;5.686;2023-02-28T09:47:12;19.52;;;12.27;;
56511;SDS011;42408;53.238;5.686;2023-02-28T09:49:44;16.33;;;11.15;;
56511;SDS011;42408;53.238;5.686;2023-02-28T09:52:14;14.45;;;11.02;;
56511;SDS011;42408;53.238;5.686;2023-02-28T09:54:44;15.75;;;12.10;;
56511;SDS011;42408;53.238;5.686;2023-02-28T09:57:16;18.17;;;12.60;;
56511;SDS011;42408;53.238;5.686;2023-02-28T09:59:56;16.65;;;11.38;;
56511;SDS011;42408;53.238;5.686;2023-02-28T10:05:33;13.50;;;9.93;;
56511;SDS011;42408;53.238;5.686;2023-02-28T10:11:12;14.70;;;10.55;;
56511;SDS011;42408;53.238;5.686;2023-02-28T10:13:52;15.18;;;10.55;;
56511;SDS011;42408;53.238;5.686;2023-02-28T10:19:15;15.80;;;10.68;;
56511;SDS011;42408;53.238;5.686;2023-02-28T10:21:50;16.38;;;10.00;;
56511;SDS011;42408;53.238;5.686;2023-02-28T10:24:26;13.18;;;9.80;;
56511;SDS011;42408;53.238;5.686;2023-02-28T10:27:20;14.48;;;10.15;;
56511;SDS011;42408;53.238;5.686;2023-02-28T10:29:54;13.93;;;9.20;;
56511;SDS011;42408;53.238;5.686;2023-02-28T10:32:25;13.55;;;9.43;;
56511;SDS011;42408;53.238;5.686;2023-02-28T10:37:39;14.20;;;9.02;;
56511;SDS011;42408;53.238;5.686;2023-02-28T10:40:06;14.43;;;9.10;;
56511;SDS011;42408;53.238;5.686;2023-02-28T10:43:02;13.68;;;8.80;;
56511;SDS011;42408;53.238;5.686;2023-02-28T10:45:30;13.23;;;8.98;;
56511;SDS011;42408;53.238;5.686;2023-02-28T10:55:32;13.32;;;7.78;;
56511;SDS011;42408;53.238;5.686;2023-02-28T10:57:58;11.37;;;8.40;;
56511;SDS011;42408;53.238;5.686;2023-02-28T11:00:25;17.67;;;8.97;;
56511;SDS011;42408;53.238;5.686;2023-02-28T11:02:56;12.90;;;8.35;;
56511;SDS011;42408;53.238;5.686;2023-02-28T11:05:29;10.93;;;7.77;;
56511;SDS011;42408;53.238;5.686;2023-02-28T11:08:37;9.93;;;7.07;;
56511;SDS011;42408;53.238;5.686;2023-02-28T11:10:48;13.05;;;8.48;;
56511;SDS011;42408;53.238;5.686;2023-02-28T11:13:21;12.48;;;7.40;;
56511;SDS011;42408;53.238;5.686;2023-02-28T11:15:57;12.43;;;7.68;;
56511;SDS011;42408;53.238;5.686;2023-02-28T11:21:21;9.75;;;6.78;;
56511;SDS011;42408;53.238;5.686;2023-02-28T11:23:49;10.57;;;6.82;;
56511;SDS011;42408;53.238;5.686;2023-02-28T11:26:17;11.85;;;7.10;;
56511;SDS011;42408;53.238;5.686;2023-02-28T11:31:39;8.82;;;5.75;;
56511;SDS011;42408;53.238;5.686;2023-02-28T11:34:21;8.47;;;5.77;;
56511;SDS011;42408;53.238;5.686;2023-02-28T11:36:50;10.43;;;5.57;;
56511;SDS011;42408;53.238;5.686;2023-02-28T11:39:16;8.50;;;5.53;;
56511;SDS011;42408;53.238;5.686;2023-02-28T12:08:49;7.67;;;4.63;;
56511;SDS011;42408;53.238;5.686;2023-02-28T12:14:22;7.93;;;5.18;;
56511;SDS011;42408;53.238;5.686;2023-02-28T12:22:35;8.75;;;5.32;;
56511;SDS011;42408;53.238;5.686;2023-02-28T12:28:10;8.00;;;5.43;;
56511;SDS011;42408;53.238;5.686;2023-02-28T12:30:38;7.85;;;4.82;;
56511;SDS011;42408;53.238;5.686;2023-02-28T12:33:21;7.60;;;4.97;;
56511;SDS011;42408;53.238;5.686;2023-02-28T12:35:51;7.63;;;4.78;;
56511;SDS011;42408;53.238;5.686;2023-02-28T12:38:27;7.45;;;4.88;;
56511;SDS011;42408;53.238;5.686;2023-02-28T12:41:34;7.38;;;4.57;;
56511;SDS011;42408;53.238;5.686;2023-02-28T12:44:09;11.50;;;5.50;;
56511;SDS011;42408;53.238;5.686;2023-02-28T12:46:47;9.20;;;5.15;;
56511;SDS011;42408;53.238;5.686;2023-02-28T12:49:17;7.22;;;4.65;;
56511;SDS011;42408;53.238;5.686;2023-02-28T12:51:56;6.75;;;4.93;;
56511;SDS011;42408;53.238;5.686;2023-02-28T12:57:31;8.30;;;5.00;;
56511;SDS011;42408;53.238;5.686;2023-02-28T13:00:22;7.90;;;4.78;;
56511;SDS011;42408;53.238;5.686;2023-02-28T13:09:01;8.25;;;4.63;;
56511;SDS011;42408;53.238;5.686;2023-02-28T13:11:31;12.65;;;5.28;;
56511;SDS011;42408;53.238;5.686;2023-02-28T13:17:00;8.10;;;5.43;;
56511;SDS011;42408;53.238;5.686;2023-02-28T13:19:28;8.43;;;5.07;;
56511;SDS011;42408;53.238;5.686;2023-02-28T13:21:56;7.57;;;5.00;;
56511;SDS011;42408;53.238;5.686;2023-02-28T13:24:43;8.70;;;5.30;;
56511;SDS011;42408;53.238;5.686;2023-02-28T13:29:50;7.28;;;5.00;;
56511;SDS011;42408;53.238;5.686;2023-02-28T13:32:28;8.63;;;6.70;;
56511;SDS011;42408;53.238;5.686;2023-02-28T13:40:06;10.38;;;5.65;;
56511;SDS011;42408;53.238;5.686;2023-02-28T13:43:02;7.90;;;4.70;;
56511;SDS011;42408;53.238;5.686;2023-02-28T13:47:59;9.13;;;5.05;;
56511;SDS011;42408;53.238;5.686;2023-02-28T14:07:27;9.07;;;5.80;;
56511;SDS011;42408;53.238;5.686;2023-02-28T14:10:01;9.23;;;5.05;;
56511;SDS011;42408;53.238;5.686;2023-02-28T14:21:22;8.10;;;5.93;;
56511;SDS011;42408;53.238;5.686;2023-02-28T14:32:33;9.50;;;5.50;;
56511;SDS011;42408;53.238;5.686;2023-02-28T14:35:40;8.27;;;5.50;;
56511;SDS011;42408;53.238;5.686;2023-02-28T14:38:29;10.63;;;6.88;;
56511;SDS011;42408;53.238;5.686;2023-02-28T14:41:00;10.52;;;7.20;;
56511;SDS011;42408;53.238;5.686;2023-02-28T14:43:29;9.88;;;7.30;;
56511;SDS011;42408;53.238;5.686;2023-02-28T14:45:56;15.50;;;9.90;;
56511;SDS011;42408;53.238;5.686;2023-02-28T14:48:25;10.30;;;7.38;;
56511;SDS011;42408;53.238;5.686;2023-02-28T14:50:58;19.77;;;12.00;;
56511;SDS011;42408;53.238;5.686;2023-02-28T14:53:27;10.20;;;6.78;;
56511;SDS011;42408;53.238;5.686;2023-02-28T14:56:01;11.63;;;7.60;;
56511;SDS011;42408;53.238;5.686;2023-02-28T14:58:28;9.80;;;7.15;;
56511;SDS011;42408;53.238;5.686;2023-02-28T15:00:57;10.18;;;6.97;;
56511;SDS011;42408;53.238;5.686;2023-02-28T15:06:01;11.07;;;7.30;;
56511;SDS011;42408;53.238;5.686;2023-02-28T15:08:29;9.13;;;6.85;;
56511;SDS011;42408;53.238;5.686;2023-02-28T15:11:13;10.18;;;7.20;;
56511;SDS011;42408;53.238;5.686;2023-02-28T15:13:54;10.85;;;7.32;;
56511;SDS011;42408;53.238;5.686;2023-02-28T15:16:26;9.60;;;6.38;;
56511;SDS011;42408;53.238;5.686;2023-02-28T15:19:05;10.32;;;6.90;;
56511;SDS011;42408;53.238;5.686;2023-02-28T15:21:58;10.70;;;6.93;;
56511;SDS011;42408;53.238;5.686;2023-02-28T15:27:19;8.90;;;6.25;;
56511;SDS011;42408;53.238;5.686;2023-02-28T15:29:47;11.32;;;6.53;;
56511;SDS011;42408;53.238;5.686;2023-02-28T15:32:35;12.45;;;6.50;;
56511;SDS011;42408;53.238;5.686;2023-02-28T15:40:43;11.10;;;6.95;;
56511;SDS011;42408;53.238;5.686;2023-02-28T15:43:17;10.38;;;6.45;;
56511;SDS011;42408;53.238;5.686;2023-02-28T15:45:51;8.88;;;7.05;;
56511;SDS011;42408;53.238;5.686;2023-02-28T15:48:30;9.15;;;6.90;;
56511;SDS011;42408;53.238;5.686;2023-02-28T15:51:07;9.93;;;6.93;;
56511;SDS011;42408;53.238;5.686;2023-02-28T15:53:47;10.15;;;5.90;;
56511;SDS011;42408;53.238;5.686;2023-02-28T15:58:47;9.57;;;6.80;;
56511;SDS011;42408;53.238;5.686;2023-02-28T16:01:21;9.33;;;7.00;;
56511;SDS011;42408;53.238;5.686;2023-02-28T16:04:01;11.65;;;7.15;;
56511;SDS011;42408;53.238;5.686;2023-02-28T16:09:15;10.10;;;6.40;;
56511;SDS011;42408;53.238;5.686;2023-02-28T16:11:46;9.90;;;6.75;;
56511;SDS011;42408;53.238;5.686;2023-02-28T16:14:23;11.20;;;6.25;;
56511;SDS011;42408;53.238;5.686;2023-02-28T16:16:54;10.20;;;6.75;;
56511;SDS011;42408;53.238;5.686;2023-02-28T16:19:21;9.32;;;7.03;;
56511;SDS011;42408;53.238;5.686;2023-02-28T16:21:47;10.43;;;6.50;;
56511;SDS011;42408;53.238;5.686;2023-02-28T16:24:13;11.45;;;7.13;;
56511;SDS011;42408;53.238;5.686;2023-02-28T16:26:40;10.17;;;7.13;;
56511;SDS011;42408;53.238;5.686;2023-02-28T16:29:06;10.13;;;6.80;;
56511;SDS011;42408;53.238;5.686;2023-02-28T16:31:35;10.75;;;7.60;;
56511;SDS011;42408;53.238;5.686;2023-02-28T16:34:03;10.38;;;7.55;;
56511;SDS011;42408;53.238;5.686;2023-02-28T16:36:29;11.65;;;7.47;;
56511;SDS011;42408;53.238;5.686;2023-02-28T16:38:55;11.20;;;7.75;;
56511;SDS011;42408;53.238;5.686;2023-02-28T16:41:22;10.60;;;6.90;;
56511;SDS011;42408;53.238;5.686;2023-02-28T16:43:51;9.55;;;7.13;;
56511;SDS011;42408;53.238;5.686;2023-02-28T16:46:19;9.48;;;7.00;;
56511;SDS011;42408;53.238;5.686;2023-02-28T16:48:45;10.13;;;7.35;;
56511;SDS011;42408;53.238;5.686;2023-02-28T16:51:16;10.95;;;7.00;;
56511;SDS011;42408;53.238;5.686;2023-02-28T16:53:43;11.85;;;8.20;;
56511;SDS011;42408;53.238;5.686;2023-02-28T16:56:22;11.93;;;6.90;;
56511;SDS011;42408;53.238;5.686;2023-02-28T16:58:50;11.70;;;7.95;;
56511;SDS011;42408;53.238;5.686;2023-02-28T17:01:19;12.13;;;8.02;;
56511;SDS011;42408;53.238;5.686;2023-02-28T17:03:50;12.05;;;7.57;;
56511;SDS011;42408;53.238;5.686;2023-02-28T17:06:20;11.40;;;7.20;;
56511;SDS011;42408;53.238;5.686;2023-02-28T17:08:48;9.32;;;7.32;;
56511;SDS011;42408;53.238;5.686;2023-02-28T17:11:15;12.82;;;6.68;;
56511;SDS011;42408;53.238;5.686;2023-02-28T17:13:41;10.38;;;6.82;;
56511;SDS011;42408;53.238;5.686;2023-02-28T17:16:10;10.27;;;6.40;;
56511;SDS011;42408;53.238;5.686;2023-02-28T17:19:00;8.85;;;6.72;;
56511;SDS011;42408;53.238;5.686;2023-02-28T17:21:28;10.48;;;7.10;;
56511;SDS011;42408;53.238;5.686;2023-02-28T17:23:54;11.60;;;7.70;;
56511;SDS011;42408;53.238;5.686;2023-02-28T17:26:21;10.10;;;7.03;;
56511;SDS011;42408;53.238;5.686;2023-02-28T17:28:50;9.40;;;6.82;;
56511;SDS011;42408;53.238;5.686;2023-02-28T17:31:17;11.32;;;8.25;;
56511;SDS011;42408;53.238;5.686;2023-02-28T17:33:43;11.32;;;8.13;;
56511;SDS011;42408;53.238;5.686;2023-02-28T17:36:30;10.67;;;8.30;;
56511;SDS011;42408;53.238;5.686;2023-02-28T17:38:55;15.00;;;9.45;;
56511;SDS011;42408;53.238;5.686;2023-02-28T17:41:23;14.13;;;9.68;;
56511;SDS011;42408;53.238;5.686;2023-02-28T17:43:49;12.43;;;8.40;;
56511;SDS011;42408;53.238;5.686;2023-02-28T17:46:16;14.23;;;8.95;;
56511;SDS011;42408;53.238;5.686;2023-02-28T17:48:45;12.23;;;8.57;;
56511;SDS011;42408;53.238;5.686;2023-02-28T17:51:15;13.27;;;8.63;;
56511;SDS011;42408;53.238;5.686;2023-02-28T17:53:42;14.05;;;8.60;;
56511;SDS011;42408;53.238;5.686;2023-02-28T17:56:11;12.40;;;8.85;;